createdAt,value
2018-04-13T00:02:19.810Z,35.43
2018-04-13T00:04:47.366Z,31.57
2018-04-13T00:07:20.501Z,34.87
2018-04-13T00:09:48.120Z,30.67
2018-04-13T00:12:15.631Z,35.63
2018-04-13T00:14:49.282Z,34.83
2018-04-13T00:17:16.776Z,26.37
2018-04-13T00:19:45.214Z,35.13
2018-04-13T00:22:12.704Z,35.93
2018-04-13T00:24:40.198Z,34.77
2018-04-13T00:27:07.865Z,37.53
2018-04-13T00:29:41.668Z,33.70
2018-04-13T00:32:09.193Z,35.90
2018-04-13T00:34:36.682Z,34.70
2018-04-13T00:37:04.233Z,35.63
2018-04-13T00:39:31.727Z,33.60
2018-04-13T00:41:59.216Z,31.03
2018-04-13T00:44:26.759Z,38.33
2018-04-13T00:46:54.282Z,31.20
2018-04-13T00:49:21.797Z,33.33
2018-04-13T00:51:49.293Z,34.23
2018-04-13T00:54:16.792Z,34.90
2018-04-13T00:56:49.901Z,33.47
2018-04-13T00:59:23.645Z,34.90
2018-04-13T01:01:51.858Z,31.87
2018-04-13T01:04:20.268Z,35.60
2018-04-13T01:06:47.845Z,28.60
2018-04-13T01:09:16.132Z,36.87
2018-04-13T01:11:43.626Z,33.20
2018-04-13T01:14:12.309Z,31.20
2018-04-13T01:16:46.157Z,30.93
2018-04-13T01:19:13.751Z,34.07
2018-04-13T01:21:41.269Z,34.63
2018-04-13T01:24:14.683Z,29.47
2018-04-13T01:26:42.185Z,33.57
2018-04-13T01:29:15.336Z,33.87
2018-04-13T01:31:42.838Z,34.03
2018-04-13T01:34:11.324Z,34.13
2018-04-13T01:36:44.781Z,35.17
2018-04-13T01:39:12.315Z,32.23
2018-04-13T01:41:45.650Z,37.07
2018-04-13T01:44:13.687Z,35.73
2018-04-13T01:46:41.354Z,34.20
2018-04-13T01:49:14.998Z,32.80
2018-04-13T01:51:42.607Z,30.03
2018-04-13T01:54:10.146Z,33.87
2018-04-13T01:56:50.088Z,33.77
2018-04-13T01:59:18.361Z,25.93
2018-04-13T02:01:52.416Z,29.33
2018-04-13T02:04:19.900Z,32.00
2018-04-13T02:06:47.472Z,34.53
2018-04-13T02:09:15.136Z,33.80
2018-04-13T02:11:42.778Z,33.33
2018-04-13T02:14:10.291Z,33.93
2018-04-13T02:16:37.835Z,32.90
2018-04-13T02:19:06.122Z,29.77
2018-04-13T02:21:34.884Z,30.83
2018-04-13T02:24:08.110Z,32.33
2018-04-13T02:26:41.344Z,32.53
2018-04-13T02:29:14.522Z,31.27
2018-04-13T02:31:42.144Z,33.20
2018-04-13T02:34:15.647Z,34.53
2018-04-13T02:36:48.781Z,32.63
2018-04-13T02:39:22.457Z,32.83
2018-04-13T02:41:50.040Z,34.23
2018-04-13T02:44:23.390Z,36.27
2018-04-13T02:46:51.790Z,34.77
2018-04-13T02:49:19.310Z,34.30
2018-04-13T02:51:46.880Z,31.50
2018-04-13T02:54:20.801Z,32.63
2018-04-13T02:56:54.853Z,35.07
2018-04-13T02:59:28.369Z,31.80
2018-04-13T03:02:01.808Z,33.00
2018-04-13T03:04:35.438Z,30.73
2018-04-13T03:07:03.008Z,30.20
2018-04-13T03:09:31.147Z,33.27
2018-04-13T03:11:59.949Z,33.70
2018-04-13T03:14:33.291Z,32.03
2018-04-13T03:17:00.941Z,28.07
2018-04-13T03:19:34.144Z,32.30
2018-04-13T03:22:01.633Z,34.33
2018-04-13T03:24:35.135Z,34.13
2018-04-13T03:27:02.785Z,31.30
2018-04-13T03:29:30.439Z,31.13
2018-04-13T03:31:57.989Z,31.83
2018-04-13T03:34:31.421Z,31.87
2018-04-13T03:36:59.705Z,29.67
2018-04-13T03:39:33.178Z,30.80
2018-04-13T03:42:07.136Z,31.73
2018-04-13T03:44:34.790Z,28.77
2018-04-13T03:47:02.286Z,32.27
2018-04-13T03:49:29.861Z,31.10
2018-04-13T03:51:57.567Z,30.90
2018-04-13T03:54:25.329Z,36.10
2018-04-13T03:56:58.648Z,36.00
2018-04-13T03:59:32.129Z,31.87
2018-04-13T04:01:59.687Z,28.17
2018-04-13T04:04:27.204Z,30.13
2018-04-13T04:07:00.467Z,28.40
2018-04-13T04:09:27.977Z,30.77
2018-04-13T04:11:56.024Z,29.03
2018-04-13T04:14:23.693Z,30.50
2018-04-13T04:16:51.911Z,30.13
2018-04-13T04:19:19.452Z,31.13
2018-04-13T04:22:05.351Z,31.03
2018-04-13T04:24:45.459Z,31.40
2018-04-13T04:27:18.668Z,28.40
2018-04-13T04:29:46.222Z,35.00
2018-04-13T04:32:13.715Z,30.77
2018-04-13T04:34:41.232Z,29.77
2018-04-13T04:37:09.054Z,33.20
2018-04-13T04:39:42.554Z,30.53
2018-04-13T04:42:10.072Z,31.90
2018-04-13T04:44:38.388Z,33.23
2018-04-13T04:47:11.614Z,34.30
2018-04-13T04:49:45.103Z,34.43
2018-04-13T04:52:12.630Z,32.73
2018-04-13T04:54:40.154Z,31.27
2018-04-13T04:57:13.290Z,29.90
2018-04-13T04:59:40.841Z,26.57
2018-04-13T05:02:15.117Z,30.97
2018-04-13T05:04:48.579Z,28.63
2018-04-13T05:07:16.077Z,31.73
2018-04-13T05:09:43.612Z,29.27
2018-04-13T05:12:16.739Z,28.47
2018-04-13T05:14:44.327Z,30.53
2018-04-13T05:17:18.702Z,28.50
2018-04-13T05:19:46.336Z,29.73
2018-04-13T05:22:19.777Z,20.13
2018-04-13T05:24:47.697Z,33.17
2018-04-13T05:27:15.203Z,36.23
2018-04-13T05:29:43.064Z,33.83
2018-04-13T05:32:10.793Z,31.17
2018-04-13T05:34:38.290Z,28.80
2018-04-13T05:37:05.788Z,32.10
2018-04-13T05:39:33.291Z,29.33
2018-04-13T05:42:00.847Z,25.83
2018-04-13T05:44:28.702Z,29.03
2018-04-13T05:46:56.206Z,26.20
2018-04-13T05:49:23.703Z,31.50
2018-04-13T05:51:51.260Z,27.10
2018-04-13T05:54:19.619Z,29.13
2018-04-13T05:56:47.123Z,26.17
2018-04-13T05:59:14.870Z,26.43
2018-04-13T06:01:42.403Z,25.87
2018-04-13T06:04:15.658Z,27.37
2018-04-13T06:06:43.297Z,26.53
2018-04-13T06:09:11.800Z,28.43
2018-04-13T06:11:39.329Z,26.27
2018-04-13T06:14:07.237Z,27.17
2018-04-13T06:16:35.871Z,27.30
2018-04-13T06:19:03.599Z,28.20
2018-04-13T06:21:43.139Z,29.10
2018-04-13T06:24:11.147Z,25.00
2018-04-13T06:26:39.801Z,27.13
2018-04-13T06:29:08.134Z,28.90
2018-04-13T06:31:41.521Z,24.40
2018-04-13T06:34:15.758Z,25.47
2018-04-13T06:36:43.309Z,25.13
2018-04-13T06:39:16.949Z,24.40
2018-04-13T06:41:50.239Z,29.87
2018-04-13T06:44:19.102Z,25.20
2018-04-13T06:46:47.212Z,23.57
2018-04-13T06:49:14.852Z,25.87
2018-04-13T06:51:42.479Z,25.00
2018-04-13T06:54:15.770Z,24.63
2018-04-13T06:56:48.879Z,23.37
2018-04-13T06:59:16.409Z,26.03
2018-04-13T07:01:49.867Z,29.07
2018-04-13T07:04:23.426Z,25.73
2018-04-13T07:06:56.738Z,25.07
2018-04-13T07:09:28.386Z,31.30
2018-04-13T07:12:01.619Z,33.47
2018-04-13T07:14:35.751Z,31.77
2018-04-13T07:17:03.469Z,33.97
2018-04-13T07:19:36.821Z,32.90
2018-04-13T07:22:04.501Z,36.17
2018-04-13T07:24:32.030Z,33.70
2018-04-13T07:26:59.610Z,29.40
2018-04-13T07:29:27.654Z,31.70
2018-04-13T07:31:56.091Z,30.60
2018-04-13T07:34:23.602Z,41.37
2018-04-13T07:36:52.019Z,40.27
2018-04-13T07:39:19.660Z,33.60
2018-04-13T07:41:47.633Z,39.47
2018-04-13T07:44:15.019Z,34.13
2018-04-13T07:46:42.613Z,33.23
2018-04-13T07:49:15.970Z,35.83
2018-04-13T07:51:49.355Z,53.23
2018-04-13T07:54:16.864Z,53.43
2018-04-13T07:56:50.445Z,39.30
2018-04-13T07:59:18.174Z,72.63
2018-04-13T08:01:51.649Z,38.37
2018-04-13T08:04:25.183Z,55.10
2018-04-13T08:06:58.651Z,52.20
2018-04-13T08:09:26.909Z,55.80
2018-04-13T08:11:54.495Z,70.93
2018-04-13T08:14:22.102Z,41.60
2018-04-13T08:16:55.474Z,52.03
2018-04-13T08:19:23.081Z,55.07
2018-04-13T08:21:56.502Z,55.43
2018-04-13T08:24:30.533Z,53.60
2018-04-13T08:26:58.070Z,55.30
2018-04-13T08:29:26.403Z,47.90
2018-04-13T08:32:00.421Z,47.00
2018-04-13T08:34:27.974Z,45.23
2018-04-13T08:36:55.640Z,45.73
2018-04-13T08:39:29.384Z,52.40
2018-04-13T08:41:57.723Z,43.27
2018-04-13T08:44:31.080Z,43.17
2018-04-13T08:47:04.350Z,43.37
2018-04-13T08:49:31.852Z,38.97
2018-04-13T08:52:04.968Z,41.77
2018-04-13T08:54:38.150Z,37.50
2018-04-13T08:57:05.742Z,38.00
2018-04-13T08:59:39.139Z,37.00
2018-04-13T09:02:06.695Z,35.47
2018-04-13T09:04:34.285Z,37.07
2018-04-13T09:07:14.027Z,38.80
2018-04-13T09:09:48.231Z,41.10
2018-04-13T09:12:22.154Z,37.03
2018-04-13T09:14:49.777Z,34.93
2018-04-13T09:17:23.332Z,34.40
2018-04-13T09:20:02.490Z,35.03
2018-04-13T09:22:35.977Z,31.70
2018-04-13T09:25:03.523Z,31.33
2018-04-13T09:27:31.103Z,29.37
2018-04-13T09:30:04.542Z,25.07
2018-04-13T09:32:37.921Z,25.43
2018-04-13T09:35:06.400Z,23.47
2018-04-13T09:37:42.130Z,25.23
2018-04-13T09:40:21.396Z,22.63
2018-04-13T09:42:48.928Z,26.60
2018-04-13T09:45:22.346Z,24.17
2018-04-13T09:47:56.023Z,22.53
2018-04-13T09:50:29.217Z,23.93
2018-04-13T09:52:57.317Z,28.13
2018-04-13T09:55:30.688Z,21.40
2018-04-13T09:58:04.372Z,24.03
2018-04-13T10:00:31.952Z,23.40
2018-04-13T10:03:11.165Z,24.57
2018-04-13T10:05:44.539Z,22.37
2018-04-13T10:08:12.069Z,21.97
2018-04-13T10:10:45.338Z,25.00
2018-04-13T10:13:13.247Z,29.07
2018-04-13T10:15:41.240Z,25.10
2018-04-13T10:18:14.952Z,27.07
2018-04-13T10:20:42.606Z,28.23
2018-04-13T10:23:10.215Z,31.43
2018-04-13T10:25:37.892Z,29.57
2018-04-13T10:28:05.612Z,30.07
2018-04-13T10:30:33.217Z,31.67
2018-04-13T10:33:00.775Z,37.47
2018-04-13T10:35:28.479Z,29.63
2018-04-13T10:37:56.057Z,30.53
2018-04-13T10:40:23.853Z,31.87
2018-04-13T10:42:51.409Z,32.10
2018-04-13T10:45:18.913Z,31.83
2018-04-13T10:47:58.477Z,28.63
2018-04-13T10:50:32.556Z,34.47
2018-04-13T10:53:00.093Z,30.83
2018-04-13T10:55:33.839Z,34.40
2018-04-13T10:58:02.341Z,38.40
2018-04-13T11:00:29.861Z,37.23
2018-04-13T11:02:57.365Z,38.63
2018-04-13T11:05:24.879Z,38.37
2018-04-13T11:07:52.489Z,43.17
2018-04-13T11:10:20.662Z,33.80
2018-04-13T11:12:48.130Z,36.37
2018-04-13T11:15:15.854Z,31.03
2018-04-13T11:17:43.368Z,29.97
2018-04-13T11:20:11.685Z,30.80
2018-04-13T11:22:45.014Z,27.00
2018-04-13T11:25:12.613Z,27.17
2018-04-13T11:27:40.540Z,27.87
2018-04-13T11:30:08.780Z,27.90
2018-04-13T11:32:37.198Z,33.70
2018-04-13T11:35:04.854Z,26.13
2018-04-13T11:37:32.398Z,24.90
2018-04-13T11:40:00.050Z,27.27
2018-04-13T11:42:27.622Z,23.50
2018-04-13T11:44:55.196Z,26.50
2018-04-13T11:47:28.905Z,22.10
2018-04-13T11:49:56.485Z,21.77
2018-04-13T11:52:37.006Z,18.90
2018-04-13T11:55:05.816Z,16.47
2018-04-13T11:57:39.236Z,18.17
2018-04-13T12:00:12.344Z,20.20
2018-04-13T12:02:39.862Z,18.77
2018-04-13T12:05:07.570Z,17.43
2018-04-13T12:07:35.254Z,16.30
2018-04-13T12:10:02.902Z,12.53
2018-04-13T12:12:30.439Z,17.83
2018-04-13T12:14:58.055Z,12.57
2018-04-13T12:17:25.724Z,15.13
2018-04-13T12:19:54.179Z,15.03
2018-04-13T12:22:21.690Z,14.40
2018-04-13T12:24:49.242Z,18.27
2018-04-13T12:27:16.885Z,15.03
2018-04-13T12:29:44.668Z,14.97
2018-04-13T12:32:12.434Z,19.73
2018-04-13T12:34:39.937Z,16.27
2018-04-13T12:37:08.224Z,10.57
2018-04-13T12:39:37.892Z,17.17
2018-04-13T12:42:05.427Z,12.07
2018-04-13T12:44:33.040Z,14.17
2018-04-13T12:47:00.602Z,15.60
2018-04-13T12:49:28.116Z,13.97
2018-04-13T12:51:55.700Z,15.00
2018-04-13T12:54:23.366Z,12.10
2018-04-13T12:56:51.243Z,13.73
2018-04-13T12:59:18.830Z,11.23
2018-04-13T13:01:47.192Z,12.07
2018-04-13T13:04:15.923Z,11.40
2018-04-13T13:06:43.628Z,14.47
2018-04-13T13:09:11.301Z,14.93
2018-04-13T13:11:38.832Z,14.27
2018-04-13T13:14:06.344Z,17.20
2018-04-13T13:16:34.611Z,12.70
2018-04-13T13:19:02.914Z,12.73
2018-04-13T13:21:30.453Z,14.23
2018-04-13T13:23:58.537Z,12.80
2018-04-13T13:26:26.080Z,13.27
2018-04-13T13:28:54.582Z,12.87
2018-04-13T13:31:23.604Z,12.73
2018-04-13T13:33:51.131Z,13.13
2018-04-13T13:36:19.609Z,7.40
2018-04-13T13:38:47.105Z,9.40
2018-04-13T13:41:14.622Z,16.70
2018-04-13T13:43:42.131Z,8.47
2018-04-13T13:46:09.635Z,11.37
2018-04-13T13:48:37.205Z,11.47
2018-04-13T13:51:04.771Z,6.43
2018-04-13T13:53:32.601Z,11.87
2018-04-13T13:56:00.122Z,8.40
2018-04-13T13:58:27.617Z,12.07
2018-04-13T14:00:55.247Z,11.70
2018-04-13T14:03:22.997Z,10.20
2018-04-13T14:05:51.258Z,8.87
2018-04-13T14:08:19.666Z,9.23
2018-04-13T14:10:47.367Z,12.67
2018-04-13T14:13:15.171Z,6.23
2018-04-13T14:15:42.678Z,8.83
2018-04-13T14:18:10.217Z,10.07
2018-04-13T14:20:37.947Z,12.20
2018-04-13T14:23:05.735Z,10.70
2018-04-13T14:25:33.259Z,10.70
2018-04-13T14:28:01.594Z,9.57
2018-04-13T14:30:29.151Z,9.10
2018-04-13T14:32:56.660Z,9.30
2018-04-13T14:35:25.066Z,12.13
2018-04-13T14:37:52.593Z,10.20
2018-04-13T14:40:20.368Z,11.07
2018-04-13T14:42:48.725Z,6.83
2018-04-13T14:45:17.022Z,4.43
2018-04-13T14:47:44.567Z,10.30
2018-04-13T14:50:12.271Z,10.77
2018-04-13T14:52:40.635Z,10.03
2018-04-13T14:55:08.927Z,10.27
2018-04-13T14:57:36.439Z,7.20
2018-04-13T15:00:04.677Z,11.03
2018-04-13T15:02:32.614Z,6.60
2018-04-13T15:05:01.652Z,6.20
2018-04-13T15:07:29.211Z,8.20
2018-04-13T15:09:57.107Z,6.53
2018-04-13T15:12:24.632Z,9.40
2018-04-13T15:14:52.555Z,12.20
2018-04-13T15:17:20.245Z,8.33
2018-04-13T15:19:48.272Z,8.30
2018-04-13T15:22:15.829Z,9.67
2018-04-13T15:24:43.376Z,11.53
2018-04-13T15:27:11.190Z,9.30
2018-04-13T15:29:41.528Z,10.77
2018-04-13T15:32:09.098Z,7.50
2018-04-13T15:34:36.619Z,7.93
2018-04-13T15:37:05.095Z,8.20
2018-04-13T15:39:33.384Z,8.07
2018-04-13T15:42:01.104Z,10.17
2018-04-13T15:44:28.695Z,11.97
2018-04-13T15:46:56.284Z,7.30
2018-04-13T15:49:23.865Z,9.33
2018-04-13T15:51:51.367Z,5.57
2018-04-13T15:54:18.887Z,6.80
2018-04-13T15:56:46.588Z,5.93
2018-04-13T15:59:14.244Z,6.10
2018-04-13T16:01:41.788Z,7.23
2018-04-13T16:04:09.328Z,4.83
2018-04-13T16:06:37.023Z,6.60
2018-04-13T16:09:04.578Z,5.10
2018-04-13T16:11:32.511Z,7.87
2018-04-13T16:14:00.112Z,9.43
2018-04-13T16:16:27.774Z,8.33
2018-04-13T16:18:55.302Z,4.53
2018-04-13T16:21:22.861Z,5.63
2018-04-13T16:23:50.834Z,5.13
2018-04-13T16:26:18.338Z,5.97
2018-04-13T16:28:45.942Z,7.37
2018-04-13T16:31:13.715Z,7.40
2018-04-13T16:33:41.267Z,5.83
2018-04-13T16:36:08.877Z,7.37
2018-04-13T16:38:36.403Z,8.57
2018-04-13T16:41:03.950Z,10.37
2018-04-13T16:43:31.918Z,13.70
2018-04-13T16:46:02.333Z,10.30
2018-04-13T16:48:30.005Z,8.57
2018-04-13T16:50:57.715Z,11.33
2018-04-13T16:53:25.256Z,18.57
2018-04-13T16:55:52.792Z,18.07
2018-04-13T16:58:20.421Z,18.17
2018-04-13T17:00:48.120Z,10.00
2018-04-13T17:03:15.652Z,16.37
2018-04-13T17:05:44.117Z,19.93
2018-04-13T17:08:11.799Z,30.33
2018-04-13T17:10:39.353Z,22.40
2018-04-13T17:13:07.761Z,25.27
2018-04-13T17:15:35.275Z,21.17
2018-04-13T17:18:02.831Z,24.03
2018-04-13T17:20:30.513Z,26.30
2018-04-13T17:22:59.213Z,22.27
2018-04-13T17:25:26.765Z,21.83
2018-04-13T17:27:55.195Z,20.47
2018-04-13T17:30:23.721Z,19.23
2018-04-13T17:32:51.241Z,18.87
2018-04-13T17:35:18.851Z,29.63
2018-04-13T17:37:47.308Z,20.20
2018-04-13T17:40:14.835Z,22.50
2018-04-13T17:42:42.375Z,20.20
2018-04-13T17:45:10.075Z,20.07
2018-04-13T17:47:38.378Z,23.23
2018-04-13T17:50:06.168Z,31.20
2018-04-13T17:52:33.669Z,28.83
2018-04-13T17:55:02.569Z,20.23
2018-04-13T17:57:30.074Z,18.50
2018-04-13T17:59:58.289Z,15.90
2018-04-13T18:02:25.969Z,14.73
2018-04-13T18:04:54.023Z,13.47
2018-04-13T18:07:21.626Z,9.57
2018-04-13T18:09:49.164Z,14.50
2018-04-13T18:12:17.068Z,62.20
2018-04-13T18:14:45.328Z,105.50
2018-04-13T18:17:13.149Z,45.10
2018-04-13T18:19:40.667Z,105.50
2018-04-13T18:22:08.212Z,32.60
2018-04-13T18:24:35.748Z,31.77
2018-04-13T18:27:03.340Z,44.67
2018-04-13T18:29:31.616Z,41.17
2018-04-13T18:31:59.149Z,47.63
2018-04-13T18:34:26.709Z,121.50
2018-04-13T18:36:55.528Z,45.20
2018-04-13T18:39:23.182Z,36.00
2018-04-13T18:41:50.728Z,40.13
2018-04-13T18:44:19.040Z,38.77
2018-04-13T18:46:46.610Z,48.20
2018-04-13T18:49:14.132Z,59.30
2018-04-13T18:51:42.469Z,43.67
2018-04-13T18:54:10.473Z,52.33
2018-04-13T18:56:38.013Z,29.37
2018-04-13T18:59:05.531Z,54.53
2018-04-13T19:01:33.174Z,80.70
2018-04-13T19:04:01.264Z,44.97
2018-04-13T19:06:28.796Z,36.23
2018-04-13T19:08:56.468Z,20.10
2018-04-13T19:11:24.879Z,29.43
2018-04-13T19:13:52.410Z,22.87
2018-04-13T19:16:20.735Z,21.17
2018-04-13T19:18:48.342Z,24.23
2018-04-13T19:21:16.744Z,23.70
2018-04-13T19:23:44.303Z,27.40
2018-04-13T19:26:11.992Z,33.80
2018-04-13T19:28:39.614Z,29.43
2018-04-13T19:31:07.304Z,30.57
2018-04-13T19:33:34.920Z,28.03
2018-04-13T19:36:02.688Z,31.87
2018-04-13T19:38:30.272Z,23.50
2018-04-13T19:40:58.877Z,24.57
2018-04-13T19:43:26.575Z,35.37
2018-04-13T19:45:54.181Z,25.40
2018-04-13T19:48:21.797Z,21.00
2018-04-13T19:50:49.425Z,52.83
2018-04-13T19:53:17.027Z,45.30
2018-04-13T19:55:45.467Z,31.47
2018-04-13T19:58:13.042Z,29.80
2018-04-13T20:00:40.644Z,29.83
2018-04-13T20:03:08.308Z,128.87
2018-04-13T20:05:36.837Z,33.30
2018-04-13T20:08:05.159Z,33.30
2018-04-13T20:10:32.885Z,38.33
2018-04-13T20:13:00.468Z,30.43
2018-04-13T20:15:28.047Z,48.00
2018-04-13T20:17:55.573Z,35.80
2018-04-13T20:20:23.195Z,22.20
2018-04-13T20:22:50.723Z,22.33
2018-04-13T20:25:18.471Z,25.80
2018-04-13T20:27:46.431Z,24.50
2018-04-13T20:30:14.227Z,27.47
2018-04-13T20:32:41.741Z,27.80
2018-04-13T20:35:09.873Z,20.63
2018-04-13T20:37:38.005Z,20.40
2018-04-13T20:40:06.635Z,23.60
2018-04-13T20:42:34.974Z,26.23
2018-04-13T20:45:02.509Z,41.97
2018-04-13T20:47:30.835Z,17.10
2018-04-13T20:49:58.393Z,22.57
2018-04-13T20:52:26.077Z,24.87
2018-04-13T20:54:54.732Z,21.10
2018-04-13T20:57:22.258Z,24.83
2018-04-13T20:59:49.783Z,26.43
2018-04-13T21:02:17.332Z,24.83
2018-04-13T21:04:45.612Z,23.53
2018-04-13T21:07:13.922Z,24.50
2018-04-13T21:09:41.443Z,24.67
2018-04-13T21:12:09.001Z,31.90
2018-04-13T21:14:37.467Z,26.00
2018-04-13T21:17:05.148Z,29.80
2018-04-13T21:19:32.701Z,26.27
2018-04-13T21:22:00.271Z,18.37
2018-04-13T21:24:27.820Z,24.87
2018-04-13T21:26:55.525Z,26.87
2018-04-13T21:29:23.043Z,21.37
2018-04-13T21:31:50.709Z,22.60
2018-04-13T21:34:19.237Z,21.07
2018-04-13T21:36:46.755Z,24.37
2018-04-13T21:39:14.342Z,21.77
2018-04-13T21:41:41.868Z,18.53
2018-04-13T21:44:10.247Z,17.40
2018-04-13T21:46:37.909Z,19.17
2018-04-13T21:49:06.263Z,17.83
2018-04-13T21:51:33.759Z,18.30
2018-04-13T21:54:02.031Z,19.63
2018-04-13T21:56:30.314Z,17.60
2018-04-13T21:58:58.128Z,16.73
2018-04-13T22:01:25.723Z,16.20
2018-04-13T22:03:54.016Z,14.67
2018-04-13T22:06:21.531Z,15.17
2018-04-13T22:08:49.044Z,13.43
2018-04-13T22:11:16.588Z,10.83
2018-04-13T22:13:45.916Z,11.90
2018-04-13T22:16:14.117Z,8.87
2018-04-13T22:18:41.650Z,8.17
2018-04-13T22:21:09.204Z,9.37
2018-04-13T22:23:37.372Z,10.87
2018-04-13T22:26:05.236Z,7.23
2018-04-13T22:28:32.732Z,6.77
2018-04-13T22:31:00.255Z,6.37
2018-04-13T22:33:28.530Z,5.43
2018-04-13T22:35:56.024Z,4.97
2018-04-13T22:38:23.533Z,5.90
2018-04-13T22:40:51.055Z,12.90
2018-04-13T22:43:18.564Z,14.30
2018-04-13T22:45:46.078Z,7.97
2018-04-13T22:48:13.605Z,6.70
2018-04-13T22:50:41.132Z,9.53
2018-04-13T22:53:08.636Z,8.47
2018-04-13T22:55:36.136Z,10.77
2018-04-13T22:58:03.665Z,8.67
2018-04-13T23:00:31.152Z,9.03
2018-04-13T23:02:58.662Z,15.73
2018-04-13T23:05:26.198Z,8.47
2018-04-13T23:07:53.710Z,12.73
2018-04-13T23:10:21.248Z,8.73
2018-04-13T23:12:48.758Z,12.00
2018-04-13T23:15:17.864Z,50.20
2018-04-13T23:17:46.149Z,22.40
2018-04-13T23:20:14.456Z,56.20
2018-04-13T23:22:42.371Z,54.10
2018-04-13T23:25:09.881Z,37.30
2018-04-13T23:27:37.376Z,40.80
2018-04-13T23:30:05.011Z,32.27
2018-04-13T23:32:32.634Z,21.10
2018-04-13T23:35:01.031Z,29.20
2018-04-13T23:37:28.762Z,24.57
2018-04-13T23:39:57.130Z,30.73
2018-04-13T23:42:25.411Z,23.27
2018-04-13T23:44:52.929Z,23.13
2018-04-13T23:47:20.902Z,94.63
2018-04-13T23:49:48.456Z,20.17
2018-04-13T23:52:15.955Z,25.20
2018-04-13T23:54:43.497Z,21.63
2018-04-13T23:57:11.818Z,18.87
2018-04-13T23:59:39.365Z,25.80
